Time;durP1;ratioP1;P1;durP2;ratioP2;P2;SDS_P1;SDS_P2;PMS_P1;PMS_P2;Temp;Humidity;BMP_temperature;BMP_pressure;BME280_temperature;BME280_humidity;BME280_pressure;Samples;Min_cycle;Max_cycle;Signal;HPM_P1;HPM_P2
2022/05/24 00:01:03;;;;;;;;;;;;;;;;;;4957623;28;112485;-64
2022/05/24 00:03:29;;;;;;;;;;;;;;;;;;4950374;28;125475;-64
2022/05/24 00:05:55;;;;;;;;;;;;;;;;;;4940605;28;136830;-65
2022/05/24 00:08:22;;;;;;;;;;;;;;;;;;4948126;28;106105;-65
2022/05/24 00:10:48;;;;;;;;;;;;;;;;;;4950517;28;137486;-64
2022/05/24 00:13:14;;;;;;;;;;;;;;;;;;4945831;28;135822;-64
2022/05/24 00:15:40;;;;;;;;;;;;;;;;;;4950713;28;120878;-64
2022/05/24 00:18:07;;;;;;;;;;;;;;;;;;4941675;28;135873;-64
2022/05/24 00:20:33;;;;;;;;;;;;;;;;;;4951180;28;136234;-65
2022/05/24 00:22:59;;;;;;;;;;;;;;;;;;4958101;28;121919;-64
2022/05/24 00:25:26;;;;;;;;;;;;;;;;;;4953008;28;119423;-64
2022/05/24 00:27:52;;;;;;;;;;;;;;;;;;4948108;28;126327;-64
2022/05/24 00:30:18;;;;;;;;;;;;;;;;;;4944610;28;136429;-65
2022/05/24 00:32:44;;;;;;;;;;;;;;;;;;4945066;28;137270;-64
2022/05/24 00:35:12;;;;;;;;;;;;;;;;;;4950579;28;106719;-64
2022/05/24 00:37:39;;;;;;;;;;;;;;;;;;4949037;28;108321;-64
2022/05/24 00:40:05;;;;;;;;;;;;;;;;;;4949787;28;135617;-65
2022/05/24 00:42:31;;;;;;;;;;;;;;;;;;4947283;28;117445;-64
2022/05/24 00:44:58;;;;;;;;;;;;;;;;;;4944010;28;131034;-64
2022/05/24 00:47:24;;;;;;;;;;;;;;;;;;4952500;28;135738;-64
2022/05/24 00:49:50;;;;;;;;;;;;;;;;;;4945580;28;137803;-64
2022/05/24 00:52:16;;;;;;;;;;;;;;;;;;4941784;28;138559;-64
2022/05/24 00:54:48;;;;;;;;;;;;;;;;;;4938729;28;123175;-64
2022/05/24 00:57:17;;;;;;;;;;;;;;;;;;4946891;28;134436;-64
2022/05/24 00:59:43;;;;;;;;;;;;;;;;;;4956923;28;136168;-64
2022/05/24 01:02:10;;;;;;;;;;;;;;;;;;4948413;28;124195;-64
2022/05/24 01:04:39;;;;;;;;;;;;;;;;;;4955990;22;107856;-64
2022/05/24 01:07:05;;;;;;;;;;;;;;;;;;4949295;28;118521;-64
2022/05/24 01:09:34;;;;;;;;;;;;;;;;;;4948931;28;107257;-64
2022/05/24 01:12:01;;;;;;;;;;;;;;;;;;4947054;28;134293;-64
2022/05/24 01:14:27;;;;;;;;;;;;;;;;;;4942273;28;120414;-65
2022/05/24 01:16:54;;;;;;;;;;;;;;;;;;4947966;28;137461;-63
2022/05/24 01:19:20;;;;;;;;;;;;;;;;;;4949807;28;136923;-64
2022/05/24 01:21:47;;;;;;;;;;;;;;;;;;4948378;28;121928;-63
2022/05/24 01:24:14;;;;;;;;;;;;;;;;;;4939745;28;136469;-64
2022/05/24 01:26:40;;;;;;;;;;;;;;;;;;4941696;28;137409;-63
2022/05/24 01:29:08;;;;;;;;;;;;;;;;;;4952950;28;105702;-63
2022/05/24 01:37:04;;;;;;;;;;;;;;;;;;4943822;28;136628;-65
2022/05/24 01:39:30;;;;;;;;;;;;;;;;;;4947405;28;109743;-64
2022/05/24 01:41:58;;;;;;;;;;;;;;;;;;4948636;28;117823;-64
2022/05/24 01:44:24;;;;;;;;;;;;;;;;;;4954059;28;137444;-65
2022/05/24 01:46:50;;;;;;;;;;;;;;;;;;4946219;28;131671;-65
2022/05/24 01:49:17;;;;;;;;;;;;;;;;;;4950072;28;122978;-64
2022/05/24 01:51:43;;;;;;;;;;;;;;;;;;4946285;28;137096;-64
2022/05/24 01:54:09;;;;;;;;;;;;;;;;;;4948975;28;121969;-64
2022/05/24 01:56:36;;;;;;;;;;;;;;;;;;4946884;28;136278;-64
2022/05/24 01:59:03;;;;;;;;;;;;;;;;;;4946697;28;131471;-63
2022/05/24 02:01:29;;;;;;;;;;;;;;;;;;4951716;28;108161;-66
2022/05/24 02:03:55;;;;;;;;;;;;;;;;;;4945163;28;137678;-64
2022/05/24 02:06:22;;;;;;;;;;;;;;;;;;4946359;28;135434;-64
2022/05/24 02:08:48;;;;;;;;;;;;;;;;;;4939365;28;122578;-64
2022/05/24 02:11:15;;;;;;;;;;;;;;;;;;4937309;28;125263;-64
2022/05/24 02:13:41;;;;;;;;;;;;;;;;;;4951562;28;136248;-64
2022/05/24 02:16:07;;;;;;;;;;;;;;;;;;4950823;28;133962;-64
2022/05/24 02:18:33;;;;;;;;;;;;;;;;;;4941570;28;137782;-63
2022/05/24 02:21:01;;;;;;;;;;;;;;;;;;4945983;28;123447;-64
2022/05/24 02:23:27;;;;;;;;;;;;;;;;;;4948127;28;135949;-64
2022/05/24 02:25:53;;;;;;;;;;;;;;;;;;4945040;28;138007;-63
2022/05/24 02:28:20;;;;;;;;;;;;;;;;;;4948944;28;106784;-64
2022/05/24 02:30:46;;;;;;;;;;;;;;;;;;4942058;28;137030;-64
2022/05/24 02:33:12;;;;;;;;;;;;;;;;;;4937019;28;135836;-64
2022/05/24 02:35:38;;;;;;;;;;;;;;;;;;4952643;28;105854;-64
2022/05/24 02:38:05;;;;;;;;;;;;;;;;;;4934670;28;134975;-64
2022/05/24 02:43:16;;;;;;;;;;;;;;;;;;4951612;28;135356;-64
2022/05/24 02:45:42;;;;;;;;;;;;;;;;;;4942268;28;137049;-64
2022/05/24 02:48:09;;;;;;;;;;;;;;;;;;4943641;28;106907;-64
2022/05/24 02:50:35;;;;;;;;;;;;;;;;;;4943705;28;136634;-65
2022/05/24 02:53:01;;;;;;;;;;;;;;;;;;4946748;28;137042;-64
2022/05/24 02:55:28;;;;;;;;;;;;;;;;;;4946806;28;105983;-64
2022/05/24 02:57:54;;;;;;;;;;;;;;;;;;4956355;28;122279;-64
2022/05/24 03:00:20;;;;;;;;;;;;;;;;;;4946104;28;116256;-64
2022/05/24 03:02:47;;;;;;;;;;;;;;;;;;4948356;28;137179;-64
2022/05/24 03:05:13;;;;;;;;;;;;;;;;;;4936240;28;136735;-64
2022/05/24 03:10:24;;;;;;;;;;;;;;;;;;4947295;28;136580;-64
2022/05/24 03:15:36;;;;;;;;;;;;;;;;;;4936512;28;122609;-64
2022/05/24 03:18:02;;;;;;;;;;;;;;;;;;4948941;28;129227;-64
2022/05/24 03:20:28;;;;;;;;;;;;;;;;;;4946352;28;106026;-64
2022/05/24 03:22:58;;;;;;;;;;;;;;;;;;4948806;28;107164;-65
2022/05/24 03:25:24;;;;;;;;;;;;;;;;;;4942782;28;136158;-64
2022/05/24 03:27:50;;;;;;;;;;;;;;;;;;4945086;28;123420;-64
2022/05/24 03:30:16;;;;;;;;;;;;;;;;;;4942246;28;136643;-64
2022/05/24 03:32:43;;;;;;;;;;;;;;;;;;4946253;28;138133;-64
2022/05/24 03:35:11;;;;;;;;;;;;;;;;;;4947878;28;123525;-64
2022/05/24 03:37:38;;;;;;;;;;;;;;;;;;4946020;28;135872;-64
2022/05/24 03:40:04;;;;;;;;;;;;;;;;;;4948662;28;137106;-65
2022/05/24 03:42:30;;;;;;;;;;;;;;;;;;4952503;28;132854;-64
2022/05/24 03:45:00;;;;;;;;;;;;;;;;;;4945316;28;107362;-64
2022/05/24 03:47:26;;;;;;;;;;;;;;;;;;4948116;28;123133;-64
2022/05/24 03:49:53;;;;;;;;;;;;;;;;;;4944401;28;123738;-64
2022/05/24 03:52:19;;;;;;;;;;;;;;;;;;4942141;28;136802;-64
2022/05/24 03:54:45;;;;;;;;;;;;;;;;;;4934706;28;122014;-64
2022/05/24 03:59:57;;;;;;;;;;;;;;;;;;4941351;28;136271;-64
2022/05/24 04:02:23;;;;;;;;;;;;;;;;;;4948111;28;121500;-64
2022/05/24 04:04:49;;;;;;;;;;;;;;;;;;4944441;28;137710;-64
2022/05/24 04:07:16;;;;;;;;;;;;;;;;;;4939475;28;106307;-65
2022/05/24 04:09:42;;;;;;;;;;;;;;;;;;4946278;28;112473;-64
2022/05/24 04:12:10;;;;;;;;;;;;;;;;;;4946965;28;107736;-64
2022/05/24 04:14:36;;;;;;;;;;;;;;;;;;4938937;28;118240;-64
2022/05/24 04:17:03;;;;;;;;;;;;;;;;;;4950078;28;107707;-64
2022/05/24 04:19:29;;;;;;;;;;;;;;;;;;4943086;28;106802;-64
2022/05/24 04:21:55;;;;;;;;;;;;;;;;;;4938501;28;106147;-65
2022/05/24 04:24:23;;;;;;;;;;;;;;;;;;4961494;28;107207;-65
2022/05/24 04:26:50;;;;;;;;;;;;;;;;;;4938142;28;116025;-65
2022/05/24 04:29:16;;;;;;;;;;;;;;;;;;4943796;28;136640;-66
2022/05/24 04:31:42;;;;;;;;;;;;;;;;;;4943799;28;133692;-65
2022/05/24 04:34:12;;;;;;;;;;;;;;;;;;4960054;28;107379;-65
2022/05/24 04:36:38;;;;;;;;;;;;;;;;;;4944748;28;136351;-65
2022/05/24 04:39:04;;;;;;;;;;;;;;;;;;4952639;28;112831;-64
2022/05/24 04:44:15;;;;;;;;;;;;;;;;;;4945621;28;136575;-65
2022/05/24 04:49:27;;;;;;;;;;;;;;;;;;4947993;28;135794;-65
2022/05/24 04:51:53;;;;;;;;;;;;;;;;;;4942025;28;130749;-65
2022/05/24 04:54:19;;;;;;;;;;;;;;;;;;4949017;28;105997;-64
2022/05/24 04:56:46;;;;;;;;;;;;;;;;;;4941099;28;136599;-65
2022/05/24 04:59:14;;;;;;;;;;;;;;;;;;4949259;28;107596;-65
2022/05/24 05:01:40;;;;;;;;;;;;;;;;;;4949879;28;122045;-64
2022/05/24 05:04:06;;;;;;;;;;;;;;;;;;4949471;28;136688;-64
2022/05/24 05:06:33;;;;;;;;;;;;;;;;;;4945678;28;134764;-64
2022/05/24 05:08:59;;;;;;;;;;;;;;;;;;4949367;28;123785;-64
2022/05/24 05:11:25;;;;;;;;;;;;;;;;;;4943039;28;119514;-64
2022/05/24 05:13:51;;;;;;;;;;;;;;;;;;4947945;28;123281;-64
2022/05/24 05:16:18;;;;;;;;;;;;;;;;;;4957703;28;136902;-64
2022/05/24 05:18:44;;;;;;;;;;;;;;;;;;4950490;28;135591;-66
2022/05/24 05:21:10;;;;;;;;;;;;;;;;;;4948360;28;123008;-64
2022/05/24 05:23:37;;;;;;;;;;;;;;;;;;4942056;28;136756;-63
2022/05/24 05:26:03;;;;;;;;;;;;;;;;;;4949123;28;106619;-63
2022/05/24 05:28:29;;;;;;;;;;;;;;;;;;4949819;28;122870;-63
2022/05/24 05:33:41;;;;;;;;;;;;;;;;;;4943630;28;122419;-63
2022/05/24 05:36:07;;;;;;;;;;;;;;;;;;4948175;28;135302;-63
2022/05/24 05:38:33;;;;;;;;;;;;;;;;;;4964428;28;134862;-63
2022/05/24 05:41:00;;;;;;;;;;;;;;;;;;4943219;28;106895;-63
2022/05/24 05:43:26;;;;;;;;;;;;;;;;;;4947648;28;137839;-65
2022/05/24 05:45:53;;;;;;;;;;;;;;;;;;4947092;28;136642;-64
2022/05/24 05:48:19;;;;;;;;;;;;;;;;;;4929823;28;124035;-64
2022/05/24 05:50:47;;;;;;;;;;;;;;;;;;4952217;28;133815;-64
2022/05/24 05:53:13;;;;;;;;;;;;;;;;;;4940902;28;123519;-63
2022/05/24 05:55:41;;;;;;;;;;;;;;;;;;4940131;28;136777;-64
2022/05/24 05:58:08;;;;;;;;;;;;;;;;;;4944940;28;107836;-64
2022/05/24 06:00:35;;;;;;;;;;;;;;;;;;4949292;28;123436;-64
2022/05/24 06:03:01;;;;;;;;;;;;;;;;;;4949130;28;135404;-65
2022/05/24 06:05:27;;;;;;;;;;;;;;;;;;4943784;28;136183;-65
2022/05/24 06:07:54;;;;;;;;;;;;;;;;;;4949612;28;123904;-66
2022/05/24 06:10:20;;;;;;;;;;;;;;;;;;4958262;28;135853;-64
2022/05/24 06:12:47;;;;;;;;;;;;;;;;;;4950722;28;138088;-63
2022/05/24 06:15:13;;;;;;;;;;;;;;;;;;4954527;28;125003;-64
2022/05/24 06:17:39;;;;;;;;;;;;;;;;;;4938756;28;137253;-64
2022/05/24 06:20:05;;;;;;;;;;;;;;;;;;4943588;28;124234;-64
2022/05/24 06:22:32;;;;;;;;;;;;;;;;;;4948086;28;135174;-64
2022/05/24 06:24:58;;;;;;;;;;;;;;;;;;4945237;28;135715;-63
2022/05/24 06:27:25;;;;;;;;;;;;;;;;;;4945285;28;122139;-64
2022/05/24 06:29:51;;;;;;;;;;;;;;;;;;4946021;28;128043;-63
2022/05/24 06:32:17;;;;;;;;;;;;;;;;;;4944177;28;138039;-64
2022/05/24 06:34:45;;;;;;;;;;;;;;;;;;4944133;28;122562;-63
2022/05/24 06:37:16;;;;;;;;;;;;;;;;;;4946034;28;107236;-63
2022/05/24 06:39:43;;;;;;;;;;;;;;;;;;4941971;28;106424;-64
2022/05/24 06:42:09;;;;;;;;;;;;;;;;;;4947575;28;138822;-63
2022/05/24 06:44:37;;;;;;;;;;;;;;;;;;4952992;28;107456;-64
2022/05/24 06:47:03;;;;;;;;;;;;;;;;;;4943916;28;122732;-63
2022/05/24 06:49:30;;;;;;;;;;;;;;;;;;4947056;28;126026;-63
2022/05/24 06:51:56;;;;;;;;;;;;;;;;;;4946741;28;126078;-63
2022/05/24 06:54:22;;;;;;;;;;;;;;;;;;4943060;28;121907;-64
2022/05/24 06:56:49;;;;;;;;;;;;;;;;;;4946033;28;106435;-63
2022/05/24 07:04:45;;;;;;;;;;;;;;;;;;4940731;28;137062;-63
2022/05/24 07:07:12;;;;;;;;;;;;;;;;;;4946069;28;110996;-64
2022/05/24 07:09:40;;;;;;;;;;;;;;;;;;4938983;28;135240;-64
2022/05/24 07:12:06;;;;;;;;;;;;;;;;;;4936793;28;136383;-64
2022/05/24 07:14:33;;;;;;;;;;;;;;;;;;4948157;28;108775;-64
2022/05/24 07:17:00;;;;;;;;;;;;;;;;;;4943796;28;128904;-63
2022/05/24 07:19:27;;;;;;;;;;;;;;;;;;4945055;28;135926;-63
2022/05/24 07:21:53;;;;;;;;;;;;;;;;;;4939849;28;133911;-63
2022/05/24 07:24:19;;;;;;;;;;;;;;;;;;4943608;28;135556;-63
2022/05/24 07:26:46;;;;;;;;;;;;;;;;;;4947096;28;107154;-66
2022/05/24 07:29:20;;;;;;;;;;;;;;;;;;4941422;28;136747;-63
2022/05/24 07:31:46;;;;;;;;;;;;;;;;;;4938105;28;136554;-63
2022/05/24 07:34:12;;;;;;;;;;;;;;;;;;4949195;28;123198;-63
2022/05/24 07:36:39;;;;;;;;;;;;;;;;;;4942019;28;136574;-63
2022/05/24 07:39:05;;;;;;;;;;;;;;;;;;4951602;28;133517;-63
2022/05/24 07:47:23;;;;;;;;;;;;;;;;;;4931601;28;106328;-65
2022/05/24 07:49:49;;;;;;;;;;;;;;;;;;4946384;28;135081;-65
2022/05/24 07:52:15;;;;;;;;;;;;;;;;;;4949970;28;119717;-65
2022/05/24 07:54:42;;;;;;;;;;;;;;;;;;4939075;28;120502;-65
2022/05/24 07:57:08;;;;;;;;;;;;;;;;;;4944632;28;135796;-65
2022/05/24 07:59:35;;;;;;;;;;;;;;;;;;4943071;28;137929;-65
2022/05/24 08:02:01;;;;;;;;;;;;;;;;;;4943194;28;123193;-66
2022/05/24 08:04:27;;;;;;;;;;;;;;;;;;4939814;28;122885;-66
2022/05/24 08:06:58;;;;;;;;;;;;;;;;;;4929603;28;106399;-67
2022/05/24 08:09:24;;;;;;;;;;;;;;;;;;4943211;28;135924;-64
2022/05/24 08:11:50;;;;;;;;;;;;;;;;;;4947308;28;137253;-63
2022/05/24 08:14:17;;;;;;;;;;;;;;;;;;4946363;28;123965;-64
2022/05/24 08:16:43;;;;;;;;;;;;;;;;;;4951386;28;124527;-64
2022/05/24 08:19:10;;;;;;;;;;;;;;;;;;4940795;28;135955;-63
2022/05/24 08:21:36;;;;;;;;;;;;;;;;;;4951319;28;121706;-62
2022/05/24 08:24:02;;;;;;;;;;;;;;;;;;4943781;28;136768;-62
2022/05/24 08:26:29;;;;;;;;;;;;;;;;;;4948262;28;107022;-64
2022/05/24 08:28:55;;;;;;;;;;;;;;;;;;4949815;28;135096;-64
2022/05/24 08:31:21;;;;;;;;;;;;;;;;;;4948870;28;136663;-62
2022/05/24 08:33:49;;;;;;;;;;;;;;;;;;4959694;28;122077;-64
2022/05/24 08:36:15;;;;;;;;;;;;;;;;;;4944241;28;136012;-65
2022/05/24 08:38:41;;;;;;;;;;;;;;;;;;4948656;28;130733;-65
2022/05/24 08:41:07;;;;;;;;;;;;;;;;;;4944449;28;127311;-65
2022/05/24 08:43:34;;;;;;;;;;;;;;;;;;4950782;28;122371;-66
2022/05/24 08:48:46;;;;;;;;;;;;;;;;;;4944805;28;116220;-65
2022/05/24 08:51:12;;;;;;;;;;;;;;;;;;4950975;28;137941;-66
2022/05/24 08:53:39;;;;;;;;;;;;;;;;;;4946225;28;121960;-66
2022/05/24 08:56:06;;;;;;;;;;;;;;;;;;4948973;28;136640;-66
2022/05/24 08:58:32;;;;;;;;;;;;;;;;;;4947981;28;135721;-66
2022/05/24 09:00:59;;;;;;;;;;;;;;;;;;4956962;28;106440;-66
2022/05/24 09:03:26;;;;;;;;;;;;;;;;;;4945150;28;137291;-65
2022/05/24 09:05:55;;;;;;;;;;;;;;;;;;4949829;28;133993;-64
2022/05/24 09:08:21;;;;;;;;;;;;;;;;;;4960640;28;121819;-64
2022/05/24 09:10:47;;;;;;;;;;;;;;;;;;4948176;28;113477;-64
2022/05/24 09:13:14;;;;;;;;;;;;;;;;;;4947241;28;123066;-64
2022/05/24 09:15:40;;;;;;;;;;;;;;;;;;4941874;28;136089;-64
2022/05/24 09:18:06;;;;;;;;;;;;;;;;;;4953557;28;121880;-64
2022/05/24 09:20:33;;;;;;;;;;;;;;;;;;4951222;28;123152;-63
2022/05/24 09:22:59;;;;;;;;;;;;;;;;;;4958187;28;135048;-64
2022/05/24 09:25:25;;;;;;;;;;;;;;;;;;4946916;28;118014;-64
2022/05/24 09:27:52;;;;;;;;;;;;;;;;;;4947815;28;120499;-65
2022/05/24 09:30:18;;;;;;;;;;;;;;;;;;4948788;28;135335;-64
2022/05/24 09:32:45;;;;;;;;;;;;;;;;;;4954550;28;122195;-64
2022/05/24 09:35:12;;;;;;;;;;;;;;;;;;4949362;28;136901;-64
2022/05/24 09:37:38;;;;;;;;;;;;;;;;;;4943542;28;137207;-64
2022/05/24 09:40:04;;;;;;;;;;;;;;;;;;4941411;28;123337;-66
2022/05/24 09:42:31;;;;;;;;;;;;;;;;;;4937938;28;137422;-66
2022/05/24 09:44:57;;;;;;;;;;;;;;;;;;4937584;28;138088;-65
2022/05/24 09:47:23;;;;;;;;;;;;;;;;;;4935731;28;123312;-65
2022/05/24 09:49:50;;;;;;;;;;;;;;;;;;4943209;28;122816;-65
2022/05/24 09:52:16;;;;;;;;;;;;;;;;;;4939041;28;122067;-66
2022/05/24 09:54:42;;;;;;;;;;;;;;;;;;4938857;28;106510;-66
2022/05/24 09:57:09;;;;;;;;;;;;;;;;;;4937901;28;137909;-65
2022/05/24 09:59:35;;;;;;;;;;;;;;;;;;4921197;28;123463;-66
2022/05/24 10:02:02;;;;;;;;;;;;;;;;;;4936570;28;124249;-66
2022/05/24 10:04:29;;;;;;;;;;;;;;;;;;4937783;28;108552;-64
2022/05/24 10:06:56;;;;;;;;;;;;;;;;;;4949520;28;118508;-64
2022/05/24 10:09:22;;;;;;;;;;;;;;;;;;4936172;28;136503;-64
2022/05/24 10:11:48;;;;;;;;;;;;;;;;;;4943834;28;137434;-63
2022/05/24 10:14:15;;;;;;;;;;;;;;;;;;4947417;28;108544;-64
2022/05/24 10:16:41;;;;;;;;;;;;;;;;;;4944649;28;136435;-63
2022/05/24 10:19:07;;;;;;;;;;;;;;;;;;4942989;28;125570;-66
2022/05/24 10:21:33;;;;;;;;;;;;;;;;;;4953073;28;136198;-65
2022/05/24 10:24:00;;;;;;;;;;;;;;;;;;4947917;28;129447;-64
2022/05/24 10:26:26;;;;;;;;;;;;;;;;;;4947455;28;111694;-63
2022/05/24 10:28:52;;;;;;;;;;;;;;;;;;4949708;28;108447;-65
2022/05/24 10:31:19;;;;;;;;;;;;;;;;;;4943663;28;133894;-63
2022/05/24 10:39:15;;;;;;;;;;;;;;;;;;4934335;28;123130;-64
2022/05/24 10:41:42;;;;;;;;;;;;;;;;;;4935998;28;108257;-67
2022/05/24 10:44:11;;;;;;;;;;;;;;;;;;4945130;28;129881;-65
2022/05/24 10:46:37;;;;;;;;;;;;;;;;;;4936214;28;123340;-65
2022/05/24 10:49:03;;;;;;;;;;;;;;;;;;4935299;28;135943;-65
2022/05/24 10:51:30;;;;;;;;;;;;;;;;;;4933995;28;107762;-65
2022/05/24 10:53:56;;;;;;;;;;;;;;;;;;4934604;28;120391;-64
2022/05/24 10:56:22;;;;;;;;;;;;;;;;;;4938456;28;132480;-67
2022/05/24 10:58:49;;;;;;;;;;;;;;;;;;4936673;28;113890;-65
2022/05/24 11:01:15;;;;;;;;;;;;;;;;;;4925346;28;135562;-65
2022/05/24 11:03:41;;;;;;;;;;;;;;;;;;4937051;28;136674;-66
2022/05/24 11:06:08;;;;;;;;;;;;;;;;;;4941643;28;110497;-65
2022/05/24 11:08:34;;;;;;;;;;;;;;;;;;4945179;28;137479;-66
2022/05/24 11:11:00;;;;;;;;;;;;;;;;;;4936030;28;128764;-65
2022/05/24 11:13:27;;;;;;;;;;;;;;;;;;4922937;28;125482;-65
2022/05/24 11:15:53;;;;;;;;;;;;;;;;;;4940249;28;137410;-67
2022/05/24 11:18:27;;;;;;;;;;;;;;;;;;4938410;28;140512;-65
2022/05/24 11:20:54;;;;;;;;;;;;;;;;;;4934315;28;134858;-66
2022/05/24 11:23:21;;;;;;;;;;;;;;;;;;4956937;28;114922;-65
2022/05/24 11:25:49;;;;;;;;;;;;;;;;;;4955162;28;120015;-67
2022/05/24 11:28:15;;;;;;;;;;;;;;;;;;4939965;28;137076;-66
2022/05/24 11:30:41;;;;;;;;;;;;;;;;;;4943030;28;107536;-66
2022/05/24 11:33:09;;;;;;;;;;;;;;;;;;4950073;28;125774;-66
2022/05/24 11:35:36;;;;;;;;;;;;;;;;;;4932232;28;112320;-67
2022/05/24 11:38:03;;;;;;;;;;;;;;;;;;4950793;28;137437;-68
2022/05/24 11:40:32;;;;;;;;;;;;;;;;;;4955982;28;123042;-67
2022/05/24 11:42:59;;;;;;;;;;;;;;;;;;4941708;28;121125;-66
2022/05/24 11:45:25;;;;;;;;;;;;;;;;;;4940390;28;114080;-65
2022/05/24 11:47:52;;;;;;;;;;;;;;;;;;4951317;28;107886;-65
2022/05/24 11:50:18;;;;;;;;;;;;;;;;;;4946533;28;136460;-66
2022/05/24 11:52:45;;;;;;;;;;;;;;;;;;4942678;28;123303;-65
2022/05/24 11:55:11;;;;;;;;;;;;;;;;;;4965130;28;125012;-66
2022/05/24 11:57:37;;;;;;;;;;;;;;;;;;4943801;28;136860;-66
2022/05/24 12:00:04;;;;;;;;;;;;;;;;;;4955246;28;121924;-65
2022/05/24 12:07:54;;;;;;;;;;;;;;;;;;4949433;28;106661;-66
2022/05/24 12:08:02;;;;;;;;;;;;;;;;;;4937162;28;135230;-66
2022/05/24 12:10:28;;;;;;;;;;;;;;;;;;4942833;28;137953;-66
2022/05/24 12:12:54;;;;;;;;;;;;;;;;;;4941614;28;122907;-65
2022/05/24 12:15:21;;;;;;;;;;;;;;;;;;4964381;28;136974;-65
2022/05/24 12:17:47;;;;;;;;;;;;;;;;;;4938418;28;109918;-66
2022/05/24 12:20:14;;;;;;;;;;;;;;;;;;4947361;28;122677;-66
2022/05/24 12:22:41;;;;;;;;;;;;;;;;;;4951050;28;116726;-66
2022/05/24 12:25:07;;;;;;;;;;;;;;;;;;4948740;28;123602;-67
2022/05/24 12:27:33;;;;;;;;;;;;;;;;;;4949977;28;137351;-66
2022/05/24 12:30:00;;;;;;;;;;;;;;;;;;4944780;28;137608;-66
2022/05/24 12:32:26;;;;;;;;;;;;;;;;;;4948496;28;123056;-67
2022/05/24 12:34:52;;;;;;;;;;;;;;;;;;4950167;28;128316;-66
2022/05/24 12:37:19;;;;;;;;;;;;;;;;;;4937219;28;135907;-66
2022/05/24 12:39:45;;;;;;;;;;;;;;;;;;4945759;28;122915;-66
2022/05/24 12:42:13;;;;;;;;;;;;;;;;;;4941103;28;136360;-66
2022/05/24 12:44:41;;;;;;;;;;;;;;;;;;4951664;28;137995;-66
2022/05/24 12:47:07;;;;;;;;;;;;;;;;;;4948605;28;136983;-66
2022/05/24 12:49:34;;;;;;;;;;;;;;;;;;4947246;28;135766;-67
2022/05/24 12:52:00;;;;;;;;;;;;;;;;;;4943537;28;119374;-66
2022/05/24 12:54:26;;;;;;;;;;;;;;;;;;4947948;28;135714;-66
2022/05/24 12:56:53;;;;;;;;;;;;;;;;;;4942204;28;137207;-66
2022/05/24 12:59:19;;;;;;;;;;;;;;;;;;4942328;28;123921;-66
2022/05/24 13:01:46;;;;;;;;;;;;;;;;;;4950335;28;135227;-66
2022/05/24 13:04:13;;;;;;;;;;;;;;;;;;4944316;28;137604;-66
2022/05/24 13:06:53;;;;;;;;;;;;;;;;;;4932518;28;106515;-66
2022/05/24 13:09:19;;;;;;;;;;;;;;;;;;4947503;28;137979;-66
2022/05/24 13:11:45;;;;;;;;;;;;;;;;;;4948477;28;111165;-66
2022/05/24 13:14:12;;;;;;;;;;;;;;;;;;4940200;28;136889;-66
2022/05/24 13:16:42;;;;;;;;;;;;;;;;;;4948707;28;137919;-66
2022/05/24 13:19:08;;;;;;;;;;;;;;;;;;4947174;28;123411;-66
2022/05/24 13:21:35;;;;;;;;;;;;;;;;;;4937223;28;136171;-66
2022/05/24 13:24:01;;;;;;;;;;;;;;;;;;4960973;28;136210;-66
2022/05/24 13:26:27;;;;;;;;;;;;;;;;;;4943112;28;124242;-66
2022/05/24 13:28:56;;;;;;;;;;;;;;;;;;4941451;28;137574;-66
2022/05/24 13:34:08;;;;;;;;;;;;;;;;;;4943736;28;138886;-67
2022/05/24 13:36:34;;;;;;;;;;;;;;;;;;4949539;28;116894;-67
2022/05/24 13:39:00;;;;;;;;;;;;;;;;;;4944141;28;122190;-67
2022/05/24 13:41:26;;;;;;;;;;;;;;;;;;4924287;28;129435;-66
2022/05/24 13:43:53;;;;;;;;;;;;;;;;;;4948886;28;126377;-66
2022/05/24 13:46:21;;;;;;;;;;;;;;;;;;4947682;28;124286;-64
2022/05/24 13:48:47;;;;;;;;;;;;;;;;;;4949890;28;137069;-66
2022/05/24 13:51:13;;;;;;;;;;;;;;;;;;4951985;28;106319;-68
2022/05/24 13:53:40;;;;;;;;;;;;;;;;;;4948732;28;136098;-66
2022/05/24 13:56:06;;;;;;;;;;;;;;;;;;4945434;28;107531;-66
2022/05/24 13:58:33;;;;;;;;;;;;;;;;;;4945210;28;122138;-66
2022/05/24 14:00:59;;;;;;;;;;;;;;;;;;4961386;28;106810;-65
2022/05/24 14:03:25;;;;;;;;;;;;;;;;;;4947384;28;136951;-65
2022/05/24 14:05:52;;;;;;;;;;;;;;;;;;4940804;28;123747;-66
2022/05/24 14:08:18;;;;;;;;;;;;;;;;;;4938723;28;136498;-65
2022/05/24 14:10:44;;;;;;;;;;;;;;;;;;4947081;28;134301;-66
2022/05/24 14:13:11;;;;;;;;;;;;;;;;;;4939862;28;136087;-65
2022/05/24 14:15:37;;;;;;;;;;;;;;;;;;4938767;28;134363;-66
2022/05/24 14:18:05;;;;;;;;;;;;;;;;;;4947217;28;106371;-66
2022/05/24 14:20:34;;;;;;;;;;;;;;;;;;4937105;28;136464;-66
2022/05/24 14:23:01;;;;;;;;;;;;;;;;;;4945863;28;136207;-65
2022/05/24 14:25:28;;;;;;;;;;;;;;;;;;4940613;28;123051;-66
2022/05/24 14:27:54;;;;;;;;;;;;;;;;;;4945678;28;136434;-66
2022/05/24 14:30:21;;;;;;;;;;;;;;;;;;4938099;28;137141;-65
2022/05/24 14:32:47;;;;;;;;;;;;;;;;;;4930729;28;121133;-66
2022/05/24 14:35:13;;;;;;;;;;;;;;;;;;4947359;28;136770;-66
2022/05/24 14:37:40;;;;;;;;;;;;;;;;;;4945076;28;120556;-66
2022/05/24 14:40:07;;;;;;;;;;;;;;;;;;4938279;28;137199;-66
2022/05/24 14:42:33;;;;;;;;;;;;;;;;;;4945319;28;136391;-66
2022/05/24 14:45:01;;;;;;;;;;;;;;;;;;4945091;28;123217;-66
2022/05/24 14:47:28;;;;;;;;;;;;;;;;;;4945311;28;137180;-68
2022/05/24 14:49:54;;;;;;;;;;;;;;;;;;4945024;28;138339;-65
2022/05/24 14:52:20;;;;;;;;;;;;;;;;;;4942997;28;108496;-65
2022/05/24 14:54:46;;;;;;;;;;;;;;;;;;4950869;28;136931;-64
2022/05/24 14:57:13;;;;;;;;;;;;;;;;;;4942252;28;123019;-65
2022/05/24 14:59:39;;;;;;;;;;;;;;;;;;4939257;28;137605;-66
2022/05/24 15:02:06;;;;;;;;;;;;;;;;;;4938166;28;135840;-69
2022/05/24 15:04:34;;;;;;;;;;;;;;;;;;4942018;28;124288;-67
2022/05/24 15:15:20;;;;;;;;;;;;;;;;;;4959048;28;123975;-67
2022/05/24 15:15:20;;;;;;;;;;;;;;;;;;4940109;28;117026;-67
2022/05/24 15:17:46;;;;;;;;;;;;;;;;;;4950709;28;137102;-68
2022/05/24 15:20:12;;;;;;;;;;;;;;;;;;4942691;28;135183;-68
2022/05/24 15:22:39;;;;;;;;;;;;;;;;;;4943792;28;136859;-68
2022/05/24 15:25:05;;;;;;;;;;;;;;;;;;4939774;28;122757;-67
2022/05/24 15:27:31;;;;;;;;;;;;;;;;;;4939242;28;135295;-70
2022/05/24 15:29:58;;;;;;;;;;;;;;;;;;4943873;28;133650;-69
2022/05/24 15:32:24;;;;;;;;;;;;;;;;;;4949708;28;107615;-68
2022/05/24 15:34:50;;;;;;;;;;;;;;;;;;4944039;28;137065;-67
2022/05/24 15:37:17;;;;;;;;;;;;;;;;;;4939139;28;136974;-67
2022/05/24 15:39:43;;;;;;;;;;;;;;;;;;4948704;28;108594;-67
2022/05/24 15:42:10;;;;;;;;;;;;;;;;;;4939180;28;128024;-67
2022/05/24 15:44:36;;;;;;;;;;;;;;;;;;4943730;28;123888;-66
2022/05/24 15:47:03;;;;;;;;;;;;;;;;;;4929892;28;135186;-67
2022/05/24 15:49:29;;;;;;;;;;;;;;;;;;4943591;28;132623;-67
2022/05/24 15:51:55;;;;;;;;;;;;;;;;;;4944206;28;123992;-67
2022/05/24 15:54:22;;;;;;;;;;;;;;;;;;4940109;28;120920;-65
2022/05/24 15:56:48;;;;;;;;;;;;;;;;;;4938346;28;135907;-66
2022/05/24 15:59:14;;;;;;;;;;;;;;;;;;4929709;28;122814;-66
2022/05/24 16:01:42;;;;;;;;;;;;;;;;;;4944192;28;129626;-65
2022/05/24 16:04:09;;;;;;;;;;;;;;;;;;4944117;28;125447;-66
2022/05/24 16:12:05;;;;;;;;;;;;;;;;;;4920187;28;121954;-68
2022/05/24 16:14:31;;;;;;;;;;;;;;;;;;4949255;28;107147;-65
2022/05/24 16:16:58;;;;;;;;;;;;;;;;;;4949855;28;131042;-66
2022/05/24 16:19:24;;;;;;;;;;;;;;;;;;4938838;28;123487;-66
2022/05/24 16:21:50;;;;;;;;;;;;;;;;;;4939028;28;107147;-66
2022/05/24 16:24:16;;;;;;;;;;;;;;;;;;4939694;28;123079;-65
2022/05/24 16:26:43;;;;;;;;;;;;;;;;;;4936197;28;136906;-66
2022/05/24 16:29:09;;;;;;;;;;;;;;;;;;4924560;28;134641;-67
2022/05/24 16:31:36;;;;;;;;;;;;;;;;;;4944795;28;119320;-65
2022/05/24 16:34:02;;;;;;;;;;;;;;;;;;4950918;28;129072;-66
2022/05/24 16:36:28;;;;;;;;;;;;;;;;;;4944302;28;136888;-66
2022/05/24 16:38:55;;;;;;;;;;;;;;;;;;4946836;28;115485;-66
2022/05/24 16:41:21;;;;;;;;;;;;;;;;;;4945126;28;131693;-66
2022/05/24 16:43:48;;;;;;;;;;;;;;;;;;4944735;28;129477;-66
2022/05/24 16:46:15;;;;;;;;;;;;;;;;;;4946756;28;136414;-66
2022/05/24 16:48:42;;;;;;;;;;;;;;;;;;4947544;28;137793;-66
2022/05/24 16:51:08;;;;;;;;;;;;;;;;;;4958267;28;123234;-66
2022/05/24 16:53:35;;;;;;;;;;;;;;;;;;4951487;28;106658;-66
2022/05/24 16:58:47;;;;;;;;;;;;;;;;;;4948271;28;124282;-66
2022/05/24 17:01:13;;;;;;;;;;;;;;;;;;4950224;28;129090;-66
2022/05/24 17:03:39;;;;;;;;;;;;;;;;;;4941620;28;137848;-66
2022/05/24 17:06:06;;;;;;;;;;;;;;;;;;4946979;28;124069;-66
2022/05/24 17:08:32;;;;;;;;;;;;;;;;;;4953491;28;136011;-66
2022/05/24 17:10:58;;;;;;;;;;;;;;;;;;4917357;28;123003;-67
2022/05/24 17:13:25;;;;;;;;;;;;;;;;;;4936925;28;137332;-67
2022/05/24 17:15:51;;;;;;;;;;;;;;;;;;4947081;28;134570;-67
2022/05/24 17:18:18;;;;;;;;;;;;;;;;;;4946918;28;124489;-66
2022/05/24 17:20:44;;;;;;;;;;;;;;;;;;4947128;28;108235;-66
2022/05/24 17:23:10;;;;;;;;;;;;;;;;;;4945182;28;136930;-69
2022/05/24 17:25:36;;;;;;;;;;;;;;;;;;4938183;28;123196;-67
2022/05/24 17:28:03;;;;;;;;;;;;;;;;;;4939171;28;135888;-68